Time;durP1;ratioP1;P1;durP2;ratioP2;P2;SDS_P1;SDS_P2;PMS_P1;PMS_P2;Temp;Humidity;BMP_temperature;BMP_pressure;BME280_temperature;BME280_humidity;BME280_pressure;Samples;Min_cycle;Max_cycle;Signal;HPM_P1;HPM_P2
2023/08/13 00:03:47;;;;;;;8.63;5.83;;;;;;;;;;2615447;54;20366;-73
2023/08/13 00:09:16;;;;;;;7.80;6.10;;;;;;;;;;2615297;54;20355;-72
2023/08/13 00:14:46;;;;;;;11.90;5.60;;;;;;;;;;2615241;54;20363;-73
2023/08/13 00:20:17;;;;;;;7.17;5.27;;;;;;;;;;2615086;54;20402;-73
2023/08/13 00:25:47;;;;;;;9.40;5.87;;;;;;;;;;2615590;54;20375;-71
2023/08/13 00:31:16;;;;;;;8.80;5.40;;;;;;;;;;2615617;39;20852;-73
2023/08/13 00:36:47;;;;;;;7.37;5.10;;;;;;;;;;2615157;54;20391;-74
2023/08/13 00:42:17;;;;;;;8.47;5.53;;;;;;;;;;2615487;39;20729;-73
2023/08/13 00:47:46;;;;;;;6.70;5.17;;;;;;;;;;2615198;54;20375;-73
2023/08/13 00:53:17;;;;;;;10.97;5.60;;;;;;;;;;2615315;54;21020;-73
2023/08/13 00:58:46;;;;;;;14.90;6.37;;;;;;;;;;2615282;54;20383;-73
2023/08/13 01:04:16;;;;;;;10.40;6.27;;;;;;;;;;2615303;54;20411;-73
2023/08/13 01:15:46;;;;;;;9.90;6.20;;;;;;;;;;2615000;54;21047;-73
2023/08/13 01:21:16;;;;;;;8.63;5.53;;;;;;;;;;2615042;54;20403;-73
2023/08/13 01:30:23;;;;;;;9.53;6.60;;;;;;;;;;2615249;54;20885;-73
2023/08/13 01:36:01;;;;;;;8.20;5.40;;;;;;;;;;2614753;54;20443;-72
2023/08/13 01:38:46;;;;;;;7.40;5.90;;;;;;;;;;2614416;54;20442;-72
2023/08/13 01:41:12;;;;;;;12.03;7.00;;;;;;;;;;2615008;54;20402;-73
2023/08/13 01:46:42;;;;;;;10.80;5.60;;;;;;;;;;2615779;39;21057;-70
2023/08/13 01:52:11;;;;;;;7.47;5.53;;;;;;;;;;2615385;54;20379;-72
2023/08/13 01:57:41;;;;;;;10.40;6.00;;;;;;;;;;2614685;54;20386;-71
2023/08/13 02:03:11;;;;;;;8.30;5.60;;;;;;;;;;2614839;54;20455;-73
2023/08/13 02:08:40;;;;;;;10.10;5.60;;;;;;;;;;2614685;54;20394;-74
2023/08/13 02:14:10;;;;;;;7.03;5.87;;;;;;;;;;2614752;46;20392;-74
2023/08/13 02:19:40;;;;;;;10.83;6.00;;;;;;;;;;2614783;54;20371;-74
2023/08/13 02:25:10;;;;;;;9.27;5.20;;;;;;;;;;2614504;54;20989;-73
2023/08/13 02:30:39;;;;;;;10.60;5.77;;;;;;;;;;2614393;54;20408;-73
2023/08/13 02:36:09;;;;;;;18.00;6.00;;;;;;;;;;2614411;54;21033;-75
2023/08/13 02:41:39;;;;;;;6.33;4.70;;;;;;;;;;2614679;54;20499;-74
2023/08/13 02:47:09;;;;;;;12.43;6.10;;;;;;;;;;2614729;54;20498;-74
2023/08/13 02:52:38;;;;;;;9.50;5.93;;;;;;;;;;2614541;46;20374;-74
2023/08/13 02:58:08;;;;;;;12.50;6.03;;;;;;;;;;2613950;54;20394;-73
2023/08/13 03:03:38;;;;;;;17.03;6.70;;;;;;;;;;2614604;54;20994;-73
2023/08/13 03:09:07;;;;;;;13.67;6.03;;;;;;;;;;2613897;54;20371;-74
2023/08/13 03:14:37;;;;;;;12.00;5.70;;;;;;;;;;2615463;54;20390;-75
2023/08/13 03:20:07;;;;;;;8.80;5.90;;;;;;;;;;2615370;47;20438;-74
2023/08/13 03:25:36;;;;;;;10.43;6.53;;;;;;;;;;2615351;54;20399;-75
2023/08/13 03:31:06;;;;;;;7.50;5.40;;;;;;;;;;2615035;54;20427;-75
2023/08/13 03:36:35;;;;;;;10.90;5.40;;;;;;;;;;2616173;54;20390;-75
2023/08/13 03:42:05;;;;;;;15.47;6.43;;;;;;;;;;2616487;54;20423;-75
2023/08/13 03:47:35;;;;;;;13.00;6.20;;;;;;;;;;2616390;54;20412;-76
2023/08/13 03:53:04;;;;;;;7.93;5.57;;;;;;;;;;2616586;54;20351;-76
2023/08/13 03:58:40;;;;;;;10.83;5.50;;;;;;;;;;2616503;54;20343;-76
2023/08/13 04:04:10;;;;;;;8.97;5.73;;;;;;;;;;2616235;54;20407;-76
2023/08/13 04:09:40;;;;;;;11.03;5.83;;;;;;;;;;2615850;54;20384;-75
2023/08/13 04:15:10;;;;;;;10.17;5.70;;;;;;;;;;2615062;54;20511;-75
2023/08/13 04:20:39;;;;;;;12.23;5.90;;;;;;;;;;2615938;54;20512;-73
2023/08/13 04:32:16;;;;;;;7.97;5.37;;;;;;;;;;2615907;46;20390;-71
2023/08/13 04:37:46;;;;;;;13.57;6.30;;;;;;;;;;2615073;54;20943;-70
2023/08/13 04:43:16;;;;;;;7.20;4.83;;;;;;;;;;2615663;46;20375;-71
2023/08/13 04:48:47;;;;;;;15.13;5.80;;;;;;;;;;2615608;54;20383;-71
2023/08/13 04:54:16;;;;;;;13.60;4.70;;;;;;;;;;2615499;54;20379;-71
2023/08/13 04:59:46;;;;;;;7.17;4.23;;;;;;;;;;2615403;54;21688;-72
2023/08/13 05:05:16;;;;;;;13.20;5.83;;;;;;;;;;2615527;54;20355;-70
2023/08/13 05:10:46;;;;;;;13.93;6.37;;;;;;;;;;2615394;54;20470;-71
2023/08/13 05:16:15;;;;;;;15.77;5.90;;;;;;;;;;2615124;54;20463;-71
2023/08/13 05:21:44;;;;;;;10.73;6.60;;;;;;;;;;2614971;54;20419;-71
2023/08/13 05:30:58;;;;;;;10.27;5.57;;;;;;;;;;2615265;54;20430;-71
2023/08/13 05:36:28;;;;;;;14.73;5.90;;;;;;;;;;2614554;54;20391;-74
2023/08/13 05:41:57;;;;;;;15.97;5.80;;;;;;;;;;2615305;54;20426;-73
2023/08/13 05:47:27;;;;;;;9.80;4.40;;;;;;;;;;2615017;54;20378;-74
2023/08/13 05:52:56;;;;;;;10.80;4.53;;;;;;;;;;2614888;54;20479;-74
2023/08/13 05:58:26;;;;;;;13.20;5.40;;;;;;;;;;2614267;54;20456;-75
2023/08/13 06:03:56;;;;;;;7.43;3.73;;;;;;;;;;2614581;54;20399;-74
2023/08/13 06:09:25;;;;;;;9.93;3.87;;;;;;;;;;2615059;54;20395;-74
2023/08/13 06:14:55;;;;;;;7.20;3.83;;;;;;;;;;2614993;54;20375;-74
2023/08/13 06:20:25;;;;;;;5.60;3.87;;;;;;;;;;2614987;54;20411;-75
2023/08/13 06:25:55;;;;;;;11.70;4.30;;;;;;;;;;2614980;39;20771;-74
2023/08/13 06:31:24;;;;;;;8.53;4.53;;;;;;;;;;2614449;46;21386;-74
2023/08/13 06:36:54;;;;;;;6.33;4.43;;;;;;;;;;2614338;54;20387;-74
2023/08/13 06:42:24;;;;;;;8.93;4.20;;;;;;;;;;2614495;54;20435;-74
2023/08/13 06:47:54;;;;;;;5.73;5.07;;;;;;;;;;2614529;54;20378;-72
2023/08/13 06:53:24;;;;;;;4.90;4.17;;;;;;;;;;2614819;54;20358;-71
2023/08/13 06:58:53;;;;;;;5.13;4.50;;;;;;;;;;2614614;54;20462;-71
2023/08/13 07:04:23;;;;;;;6.90;4.50;;;;;;;;;;2614240;54;20378;-72
2023/08/13 07:09:53;;;;;;;8.23;4.00;;;;;;;;;;2614823;54;20503;-72
2023/08/13 07:15:22;;;;;;;22.00;4.60;;;;;;;;;;2615293;54;20964;-72
2023/08/13 07:20:52;;;;;;;6.47;5.10;;;;;;;;;;2615345;54;20367;-72
2023/08/13 07:26:22;;;;;;;6.13;5.20;;;;;;;;;;2615220;54;20370;-72
2023/08/13 07:31:51;;;;;;;12.13;5.40;;;;;;;;;;2615469;39;20811;-73
2023/08/13 07:37:21;;;;;;;8.73;5.10;;;;;;;;;;2615319;54;20406;-73
2023/08/13 07:40:07;;;;;;;5.73;5.20;;;;;;;;;;2614464;47;20566;-71
2023/08/13 07:42:34;;;;;;;5.80;5.27;;;;;;;;;;2615369;39;21292;-71
2023/08/13 07:48:04;;;;;;;7.57;5.60;;;;;;;;;;2615305;54;20362;-73
2023/08/13 07:53:34;;;;;;;6.13;5.63;;;;;;;;;;2615022;54;20390;-71
2023/08/13 07:59:05;;;;;;;5.37;4.93;;;;;;;;;;2614985;54;20354;-71
2023/08/13 08:04:34;;;;;;;6.77;5.57;;;;;;;;;;2615042;54;20443;-71
2023/08/13 08:10:04;;;;;;;5.30;4.80;;;;;;;;;;2614781;54;20394;-71
2023/08/13 08:15:34;;;;;;;7.83;5.27;;;;;;;;;;2615276;46;20414;-71
2023/08/13 08:21:04;;;;;;;5.97;5.37;;;;;;;;;;2615151;54;20513;-71
2023/08/13 08:26:33;;;;;;;6.20;4.97;;;;;;;;;;2614968;54;20917;-70
2023/08/13 08:35:40;;;;;;;7.50;6.20;;;;;;;;;;2615011;54;20403;-75
2023/08/13 08:41:10;;;;;;;5.93;5.30;;;;;;;;;;2614782;54;20477;-73
2023/08/13 08:46:40;;;;;;;6.60;5.50;;;;;;;;;;2614851;54;20367;-74
2023/08/13 08:52:10;;;;;;;5.90;5.20;;;;;;;;;;2614698;54;20358;-73
2023/08/13 08:57:39;;;;;;;6.43;5.97;;;;;;;;;;2614093;54;20351;-75
2023/08/13 09:03:09;;;;;;;9.13;6.00;;;;;;;;;;2615327;54;20499;-74
2023/08/13 09:08:39;;;;;;;5.97;5.47;;;;;;;;;;2615162;54;20383;-72
2023/08/13 09:14:09;;;;;;;7.23;6.63;;;;;;;;;;2614796;54;20378;-73
2023/08/13 09:19:39;;;;;;;6.00;5.53;;;;;;;;;;2614508;54;20358;-72
2023/08/13 09:25:09;;;;;;;6.27;5.87;;;;;;;;;;2614793;54;20418;-72
2023/08/13 09:30:40;;;;;;;5.87;5.43;;;;;;;;;;2614352;54;20378;-73
2023/08/13 09:36:09;;;;;;;6.47;5.97;;;;;;;;;;2614735;54;20438;-73
2023/08/13 09:41:40;;;;;;;6.87;6.27;;;;;;;;;;2614844;54;20400;-73
2023/08/13 09:47:11;;;;;;;6.10;5.43;;;;;;;;;;2614453;54;20367;-73
2023/08/13 09:52:43;;;;;;;6.50;6.00;;;;;;;;;;2614419;54;20363;-72
2023/08/13 09:58:14;;;;;;;6.57;5.90;;;;;;;;;;2614754;54;20387;-73
2023/08/13 10:03:44;;;;;;;7.40;6.77;;;;;;;;;;2614739;54;20446;-73
2023/08/13 10:09:14;;;;;;;6.50;6.03;;;;;;;;;;2614722;54;20411;-72
2023/08/13 10:14:43;;;;;;;7.23;6.50;;;;;;;;;;2614754;54;20374;-74
2023/08/13 10:20:13;;;;;;;7.40;6.83;;;;;;;;;;2614647;54;20355;-74
2023/08/13 10:25:44;;;;;;;7.80;7.20;;;;;;;;;;2614434;54;20909;-73
2023/08/13 10:31:25;;;;;;;7.90;7.20;;;;;;;;;;2614493;54;20368;-73
2023/08/13 10:46:18;;;;;;;7.70;7.20;;;;;;;;;;2613140;54;20358;-72
2023/08/13 10:51:50;;;;;;;9.00;8.20;;;;;;;;;;2613351;54;20464;-73
2023/08/13 10:57:19;;;;;;;8.00;7.50;;;;;;;;;;2613496;54;20386;-73
2023/08/13 11:02:52;;;;;;;8.23;7.53;;;;;;;;;;2613441;54;20728;-73
2023/08/13 11:08:22;;;;;;;7.83;7.20;;;;;;;;;;2613134;54;20435;-73
2023/08/13 11:13:52;;;;;;;8.60;7.80;;;;;;;;;;2613122;54;20383;-73
2023/08/13 11:19:22;;;;;;;10.13;8.13;;;;;;;;;;2614404;39;20795;-72
2023/08/13 11:24:51;;;;;;;9.13;8.23;;;;;;;;;;2614963;54;20363;-73
2023/08/13 11:30:21;;;;;;;8.77;8.07;;;;;;;;;;2615244;54;20414;-72
2023/08/13 11:35:51;;;;;;;8.13;7.57;;;;;;;;;;2615118;54;20406;-72
2023/08/13 11:41:23;;;;;;;9.03;8.20;;;;;;;;;;2614953;54;20363;-73
2023/08/13 11:46:57;;;;;;;8.80;8.20;;;;;;;;;;2615028;54;20386;-74
2023/08/13 11:52:27;;;;;;;10.10;9.10;;;;;;;;;;2615639;39;20826;-73
2023/08/13 11:57:57;;;;;;;8.97;8.47;;;;;;;;;;2615612;54;20623;-74
2023/08/13 12:09:22;;;;;;;8.90;8.10;;;;;;;;;;2615591;54;20383;-73
2023/08/13 12:14:52;;;;;;;9.17;8.67;;;;;;;;;;2615892;54;20387;-74
2023/08/13 12:20:22;;;;;;;9.20;8.50;;;;;;;;;;2615691;54;20426;-72
2023/08/13 12:25:52;;;;;;;10.50;9.47;;;;;;;;;;2615451;54;20375;-72
2023/08/13 12:31:22;;;;;;;10.40;9.60;;;;;;;;;;2616216;39;21184;-73
2023/08/13 12:40:27;;;;;;;10.00;9.00;;;;;;;;;;2615130;54;20386;-72
2023/08/13 12:45:56;;;;;;;10.30;9.47;;;;;;;;;;2615313;54;20388;-73
2023/08/13 12:51:26;;;;;;;11.00;10.20;;;;;;;;;;2615061;54;20378;-73
2023/08/13 12:56:56;;;;;;;11.67;10.67;;;;;;;;;;2614862;54;20359;-72
2023/08/13 13:02:25;;;;;;;9.87;9.23;;;;;;;;;;2615001;54;20375;-72
2023/08/13 13:07:55;;;;;;;9.77;8.97;;;;;;;;;;2614434;54;20372;-73
2023/08/13 13:13:25;;;;;;;9.80;9.10;;;;;;;;;;2614961;54;20423;-73
2023/08/13 13:18:54;;;;;;;9.00;8.50;;;;;;;;;;2614827;46;20375;-72
2023/08/13 13:24:24;;;;;;;9.10;8.60;;;;;;;;;;2614747;54;20406;-71
2023/08/13 13:29:53;;;;;;;9.67;9.00;;;;;;;;;;2614792;54;20391;-72
2023/08/13 13:35:23;;;;;;;9.97;9.10;;;;;;;;;;2614866;46;20802;-72
2023/08/13 13:40:53;;;;;;;9.40;8.63;;;;;;;;;;2614691;54;20446;-72
2023/08/13 13:46:23;;;;;;;9.47;8.90;;;;;;;;;;2615405;54;20477;-73
2023/08/13 13:51:53;;;;;;;10.00;9.27;;;;;;;;;;2615898;54;20984;-74
2023/08/13 13:57:24;;;;;;;12.03;10.03;;;;;;;;;;2615651;54;20507;-73
2023/08/13 14:02:54;;;;;;;9.90;9.30;;;;;;;;;;2615276;54;21142;-73
2023/08/13 14:08:23;;;;;;;9.83;9.23;;;;;;;;;;2615291;46;20397;-73
2023/08/13 14:13:53;;;;;;;9.50;9.00;;;;;;;;;;2615839;54;20475;-72
2023/08/13 14:19:22;;;;;;;10.97;10.27;;;;;;;;;;2615254;54;20495;-73
2023/08/13 14:24:52;;;;;;;11.70;9.33;;;;;;;;;;2615556;39;20729;-74
2023/08/13 14:30:21;;;;;;;9.53;8.93;;;;;;;;;;2615369;54;20383;-73
2023/08/13 14:35:51;;;;;;;10.43;9.73;;;;;;;;;;2614939;54;20945;-73
2023/08/13 14:44:58;;;;;;;8.80;8.30;;;;;;;;;;2615219;54;20972;-73
2023/08/13 14:50:28;;;;;;;10.73;10.00;;;;;;;;;;2615329;54;20383;-73
2023/08/13 14:55:57;;;;;;;11.07;10.17;;;;;;;;;;2615045;54;20370;-73
2023/08/13 15:01:27;;;;;;;11.40;10.70;;;;;;;;;;2614627;54;20390;-73
2023/08/13 15:06:57;;;;;;;11.10;10.30;;;;;;;;;;2614327;54;20941;-72
2023/08/13 15:12:26;;;;;;;10.77;10.07;;;;;;;;;;2614736;54;20390;-72
2023/08/13 15:17:56;;;;;;;12.70;11.73;;;;;;;;;;2614308;54;20414;-73
2023/08/13 15:23:26;;;;;;;11.73;10.93;;;;;;;;;;2614348;54;20393;-72
2023/08/13 15:28:55;;;;;;;11.23;10.50;;;;;;;;;;2614317;54;20383;-72
2023/08/13 15:34:25;;;;;;;10.97;10.30;;;;;;;;;;2615770;54;20370;-73
2023/08/13 15:39:55;;;;;;;12.60;11.60;;;;;;;;;;2615029;54;20374;-73
2023/08/13 15:45:24;;;;;;;9.70;9.20;;;;;;;;;;2615238;46;20446;-73
2023/08/13 15:50:54;;;;;;;8.87;8.37;;;;;;;;;;2615171;54;20362;-73
2023/08/13 15:56:24;;;;;;;9.77;9.17;;;;;;;;;;2615314;54;20419;-73
2023/08/13 16:01:54;;;;;;;11.00;10.20;;;;;;;;;;2615349;54;20534;-74
2023/08/13 16:07:23;;;;;;;10.37;9.57;;;;;;;;;;2614841;54;20372;-70
2023/08/13 16:12:53;;;;;;;10.27;9.67;;;;;;;;;;2615415;54;20426;-70
2023/08/13 16:18:22;;;;;;;10.50;9.70;;;;;;;;;;2614877;54;20491;-70
2023/08/13 16:23:52;;;;;;;10.80;10.03;;;;;;;;;;2615181;54;20411;-70
2023/08/13 16:29:21;;;;;;;10.60;9.90;;;;;;;;;;2615114;54;20468;-70
2023/08/13 16:34:51;;;;;;;9.63;9.07;;;;;;;;;;2615322;54;20378;-70
2023/08/13 16:40:21;;;;;;;9.13;8.53;;;;;;;;;;2615666;39;21028;-71
2023/08/13 16:49:34;;;;;;;9.33;8.80;;;;;;;;;;2614865;54;20395;-70
2023/08/13 16:55:05;;;;;;;11.13;10.40;;;;;;;;;;2615283;46;20447;-69
2023/08/13 17:00:35;;;;;;;11.23;10.43;;;;;;;;;;2615075;54;20387;-70
2023/08/13 17:06:05;;;;;;;10.83;10.23;;;;;;;;;;2615219;54;20390;-70
2023/08/13 17:11:35;;;;;;;14.43;13.40;;;;;;;;;;2615150;54;20375;-70
2023/08/13 17:17:05;;;;;;;12.03;11.17;;;;;;;;;;2615976;54;20378;-74
2023/08/13 17:22:34;;;;;;;11.50;10.47;;;;;;;;;;2616297;54;20395;-73
2023/08/13 17:28:04;;;;;;;10.83;10.17;;;;;;;;;;2615677;54;20387;-75
2023/08/13 17:33:34;;;;;;;10.70;10.00;;;;;;;;;;2615792;54;20492;-75
2023/08/13 17:39:03;;;;;;;10.43;9.93;;;;;;;;;;2615490;54;20394;-74
2023/08/13 17:44:33;;;;;;;12.20;10.30;;;;;;;;;;2615669;54;20371;-74
2023/08/13 17:50:03;;;;;;;11.33;10.70;;;;;;;;;;2615386;54;20395;-74
2023/08/13 17:55:33;;;;;;;12.87;11.77;;;;;;;;;;2615582;54;20378;-73
2023/08/13 18:01:04;;;;;;;11.63;11.00;;;;;;;;;;2615670;39;20985;-74
2023/08/13 18:06:33;;;;;;;11.93;11.03;;;;;;;;;;2615258;46;20390;-74
2023/08/13 18:12:03;;;;;;;11.70;11.00;;;;;;;;;;2615783;54;20394;-75
2023/08/13 18:17:33;;;;;;;11.90;10.83;;;;;;;;;;2615251;54;20419;-74
2023/08/13 18:23:03;;;;;;;11.80;11.00;;;;;;;;;;2615751;54;20362;-74
2023/08/13 18:28:32;;;;;;;10.93;10.33;;;;;;;;;;2614436;54;20394;-73
2023/08/13 18:34:02;;;;;;;11.40;10.57;;;;;;;;;;2614742;54;20415;-74
2023/08/13 18:39:33;;;;;;;11.70;10.70;;;;;;;;;;2614556;54;20354;-75
2023/08/13 18:45:05;;;;;;;11.07;10.27;;;;;;;;;;2615648;39;20752;-73
2023/08/13 18:50:34;;;;;;;10.33;9.73;;;;;;;;;;2614451;54;20339;-75
2023/08/13 18:56:05;;;;;;;11.23;10.40;;;;;;;;;;2614832;54;20351;-75
2023/08/13 19:01:35;;;;;;;11.13;10.00;;;;;;;;;;2614530;54;20359;-75
2023/08/13 19:07:05;;;;;;;10.17;9.50;;;;;;;;;;2614548;54;20395;-74
2023/08/13 19:12:34;;;;;;;10.20;9.57;;;;;;;;;;2614718;54;21030;-76
2023/08/13 19:18:04;;;;;;;10.83;9.10;;;;;;;;;;2614951;54;20347;-76
2023/08/13 19:23:33;;;;;;;9.33;8.63;;;;;;;;;;2615179;39;20806;-75
2023/08/13 19:29:03;;;;;;;9.50;8.80;;;;;;;;;;2615047;54;20407;-75
2023/08/13 19:34:33;;;;;;;11.77;8.50;;;;;;;;;;2614836;54;20411;-75
2023/08/13 19:37:17;;;;;;;13.03;8.60;;;;;;;;;;2615306;54;20430;-74
2023/08/13 19:39:43;;;;;;;9.03;8.23;;;;;;;;;;2615217;54;20446;-75
2023/08/13 19:51:20;;;;;;;12.93;10.07;;;;;;;;;;2615268;54;20391;-75
2023/08/13 19:56:50;;;;;;;10.37;9.33;;;;;;;;;;2615299;54;20362;-75
2023/08/13 20:02:20;;;;;;;8.47;7.60;;;;;;;;;;2615240;54;20403;-75
2023/08/13 20:07:49;;;;;;;8.17;7.47;;;;;;;;;;2614869;54;20359;-72
2023/08/13 20:13:19;;;;;;;10.67;7.63;;;;;;;;;;2614704;54;20431;-72
2023/08/13 20:18:48;;;;;;;12.67;7.43;;;;;;;;;;2615434;54;20560;-72
2023/08/13 20:24:19;;;;;;;11.10;7.97;;;;;;;;;;2616415;31;20862;-72
2023/08/13 20:29:48;;;;;;;7.50;6.90;;;;;;;;;;2615364;54;21080;-72
2023/08/13 20:35:18;;;;;;;10.17;8.07;;;;;;;;;;2615694;54;20370;-73
2023/08/13 20:40:48;;;;;;;8.83;7.97;;;;;;;;;;2615546;54;20358;-72
2023/08/13 20:49:54;;;;;;;10.70;8.00;;;;;;;;;;2615749;54;20483;-75
2023/08/13 20:55:23;;;;;;;8.17;7.40;;;;;;;;;;2616166;54;20386;-75
2023/08/13 21:00:53;;;;;;;8.27;7.17;;;;;;;;;;2615831;54;21001;-75
2023/08/13 21:06:22;;;;;;;8.60;7.77;;;;;;;;;;2615419;54;20359;-74
2023/08/13 21:11:52;;;;;;;8.60;7.87;;;;;;;;;;2615472;54;20423;-75
2023/08/13 21:17:21;;;;;;;8.80;7.20;;;;;;;;;;2616193;54;20504;-75
2023/08/13 21:22:52;;;;;;;8.60;7.30;;;;;;;;;;2615657;54;20395;-76
2023/08/13 21:28:22;;;;;;;8.60;7.57;;;;;;;;;;2615046;54;20932;-74
2023/08/13 21:33:52;;;;;;;11.33;7.77;;;;;;;;;;2615606;54;20387;-74
2023/08/13 21:39:21;;;;;;;19.67;9.50;;;;;;;;;;2615694;54;20383;-74
2023/08/13 21:44:51;;;;;;;8.73;7.83;;;;;;;;;;2616231;39;20951;-74
2023/08/13 21:50:21;;;;;;;11.50;8.40;;;;;;;;;;2616024;54;20383;-74
2023/08/13 21:55:50;;;;;;;10.00;7.17;;;;;;;;;;2615624;54;20980;-73
2023/08/13 22:01:20;;;;;;;11.27;8.27;;;;;;;;;;2615026;54;20558;-75
2023/08/13 22:06:50;;;;;;;8.00;7.00;;;;;;;;;;2615487;54;20363;-74
2023/08/13 22:12:19;;;;;;;7.40;6.77;;;;;;;;;;2615321;54;20499;-73
2023/08/13 22:17:49;;;;;;;8.03;7.23;;;;;;;;;;2615966;39;20740;-76
2023/08/13 22:23:18;;;;;;;9.77;7.00;;;;;;;;;;2615378;54;20347;-74
2023/08/13 22:28:48;;;;;;;9.60;8.13;;;;;;;;;;2615145;39;20727;-76
2023/08/13 22:34:18;;;;;;;9.00;6.90;;;;;;;;;;2615128;54;20957;-76
2023/08/13 22:39:48;;;;;;;9.17;6.67;;;;;;;;;;2614885;46;20422;-75
2023/08/13 22:45:17;;;;;;;13.67;7.97;;;;;;;;;;2615204;54;21032;-76
2023/08/13 22:50:47;;;;;;;13.03;7.60;;;;;;;;;;2614804;54;20390;-75
2023/08/13 22:56:16;;;;;;;11.40;9.23;;;;;;;;;;2615272;39;20768;-75
2023/08/13 23:01:46;;;;;;;14.90;9.20;;;;;;;;;;2614499;46;20426;-75
2023/08/13 23:07:16;;;;;;;9.53;8.37;;;;;;;;;;2614885;39;21239;-74
2023/08/13 23:12:45;;;;;;;13.93;10.13;;;;;;;;;;2614046;54;20407;-73
2023/08/13 23:18:15;;;;;;;12.20;7.07;;;;;;;;;;2614242;54;20940;-73
2023/08/13 23:23:45;;;;;;;12.93;8.60;;;;;;;;;;2614340;54;20464;-74
2023/08/13 23:29:15;;;;;;;10.43;7.93;;;;;;;;;;2614071;54;20984;-73
2023/08/13 23:34:44;;;;;;;8.67;7.03;;;;;;;;;;2613902;54;20390;-73
2023/08/13 23:40:14;;;;;;;10.90;8.20;;;;;;;;;;2614029;54;20363;-73
2023/08/13 23:51:51;;;;;;;8.77;6.60;;;;;;;;;;2615006;54;20403;-73
2023/08/13 23:57:20;;;;;;;12.40;7.27;;;;;;;;;;2615008;54;20378;-74
